sensor_id;sensor_type;location;lat;lon;timestamp;P1;durP1;ratioP1;P2;durP2;ratioP2
65853;SDS011;52627;48.838;2.402;2023-04-24T00:01:25;5.50;;;2.70;;
65853;SDS011;52627;48.838;2.402;2023-04-24T00:03:52;5.80;;;2.40;;
65853;SDS011;52627;48.838;2.402;2023-04-24T00:06:19;7.00;;;2.90;;
65853;SDS011;52627;48.838;2.402;2023-04-24T00:08:46;6.10;;;2.30;;
65853;SDS011;52627;48.838;2.402;2023-04-24T00:11:12;6.50;;;2.60;;
65853;SDS011;52627;48.838;2.402;2023-04-24T00:13:39;5.60;;;2.70;;
65853;SDS011;52627;48.838;2.402;2023-04-24T00:16:06;6.30;;;2.40;;
65853;SDS011;52627;48.838;2.402;2023-04-24T00:18:32;6.40;;;2.70;;
65853;SDS011;52627;48.838;2.402;2023-04-24T00:20:59;6.40;;;2.70;;
65853;SDS011;52627;48.838;2.402;2023-04-24T00:23:26;5.30;;;2.60;;
65853;SDS011;52627;48.838;2.402;2023-04-24T00:25:53;8.60;;;2.70;;
65853;SDS011;52627;48.838;2.402;2023-04-24T00:28:19;8.60;;;3.10;;
65853;SDS011;52627;48.838;2.402;2023-04-24T00:30:46;8.90;;;3.20;;
65853;SDS011;52627;48.838;2.402;2023-04-24T00:33:13;7.40;;;2.80;;
65853;SDS011;52627;48.838;2.402;2023-04-24T00:35:40;5.40;;;2.50;;
65853;SDS011;52627;48.838;2.402;2023-04-24T00:38:07;8.70;;;2.90;;
65853;SDS011;52627;48.838;2.402;2023-04-24T00:40:33;6.30;;;2.70;;
65853;SDS011;52627;48.838;2.402;2023-04-24T00:43:01;6.80;;;2.70;;
65853;SDS011;52627;48.838;2.402;2023-04-24T00:45:27;8.30;;;2.70;;
65853;SDS011;52627;48.838;2.402;2023-04-24T00:47:54;7.10;;;2.40;;
65853;SDS011;52627;48.838;2.402;2023-04-24T00:50:21;6.60;;;2.90;;
65853;SDS011;52627;48.838;2.402;2023-04-24T00:52:48;4.90;;;2.20;;
65853;SDS011;52627;48.838;2.402;2023-04-24T00:55:16;7.30;;;2.80;;
65853;SDS011;52627;48.838;2.402;2023-04-24T00:57:44;9.80;;;2.70;;
65853;SDS011;52627;48.838;2.402;2023-04-24T01:00:12;7.70;;;2.70;;
65853;SDS011;52627;48.838;2.402;2023-04-24T01:02:40;6.00;;;2.30;;
65853;SDS011;52627;48.838;2.402;2023-04-24T01:05:14;7.60;;;2.40;;
65853;SDS011;52627;48.838;2.402;2023-04-24T01:07:45;7.60;;;2.60;;
65853;SDS011;52627;48.838;2.402;2023-04-24T01:10:14;6.40;;;2.60;;
65853;SDS011;52627;48.838;2.402;2023-04-24T01:12:41;6.40;;;2.60;;
65853;SDS011;52627;48.838;2.402;2023-04-24T01:15:08;9.60;;;2.70;;
65853;SDS011;52627;48.838;2.402;2023-04-24T01:17:36;7.80;;;2.60;;
65853;SDS011;52627;48.838;2.402;2023-04-24T01:20:04;8.50;;;2.90;;
65853;SDS011;52627;48.838;2.402;2023-04-24T01:22:33;8.20;;;2.80;;
65853;SDS011;52627;48.838;2.402;2023-04-24T01:25:01;8.30;;;3.00;;
65853;SDS011;52627;48.838;2.402;2023-04-24T01:27:29;7.30;;;2.70;;
65853;SDS011;52627;48.838;2.402;2023-04-24T01:29:56;8.00;;;2.50;;
65853;SDS011;52627;48.838;2.402;2023-04-24T01:32:24;6.80;;;3.10;;
65853;SDS011;52627;48.838;2.402;2023-04-24T01:34:51;9.30;;;3.30;;
65853;SDS011;52627;48.838;2.402;2023-04-24T01:37:18;8.80;;;2.50;;
65853;SDS011;52627;48.838;2.402;2023-04-24T01:39:45;6.40;;;2.40;;
65853;SDS011;52627;48.838;2.402;2023-04-24T01:42:12;7.60;;;2.60;;
65853;SDS011;52627;48.838;2.402;2023-04-24T01:44:40;9.20;;;3.10;;
65853;SDS011;52627;48.838;2.402;2023-04-24T01:47:07;6.70;;;2.50;;
65853;SDS011;52627;48.838;2.402;2023-04-24T01:49:34;6.60;;;2.40;;
65853;SDS011;52627;48.838;2.402;2023-04-24T01:52:01;6.20;;;2.90;;
65853;SDS011;52627;48.838;2.402;2023-04-24T01:54:28;9.50;;;2.80;;
65853;SDS011;52627;48.838;2.402;2023-04-24T01:56:54;6.40;;;2.40;;
65853;SDS011;52627;48.838;2.402;2023-04-24T01:59:23;8.40;;;2.60;;
65853;SDS011;52627;48.838;2.402;2023-04-24T02:01:49;6.50;;;2.60;;
65853;SDS011;52627;48.838;2.402;2023-04-24T02:04:16;7.10;;;2.50;;
65853;SDS011;52627;48.838;2.402;2023-04-24T02:06:43;9.10;;;2.60;;
65853;SDS011;52627;48.838;2.402;2023-04-24T02:09:10;8.10;;;2.70;;
65853;SDS011;52627;48.838;2.402;2023-04-24T02:11:37;8.20;;;2.60;;
65853;SDS011;52627;48.838;2.402;2023-04-24T02:14:04;8.70;;;2.90;;
65853;SDS011;52627;48.838;2.402;2023-04-24T02:16:30;8.50;;;3.00;;
65853;SDS011;52627;48.838;2.402;2023-04-24T02:18:59;5.30;;;2.50;;
65853;SDS011;52627;48.838;2.402;2023-04-24T02:21:26;8.20;;;2.60;;
65853;SDS011;52627;48.838;2.402;2023-04-24T02:23:54;6.70;;;2.90;;
65853;SDS011;52627;48.838;2.402;2023-04-24T02:26:21;11.00;;;3.40;;
65853;SDS011;52627;48.838;2.402;2023-04-24T02:28:48;9.50;;;2.90;;
65853;SDS011;52627;48.838;2.402;2023-04-24T02:31:15;7.10;;;2.80;;
65853;SDS011;52627;48.838;2.402;2023-04-24T02:33:41;7.00;;;2.60;;
65853;SDS011;52627;48.838;2.402;2023-04-24T02:36:08;6.70;;;2.40;;
65853;SDS011;52627;48.838;2.402;2023-04-24T02:38:35;8.90;;;2.90;;
65853;SDS011;52627;48.838;2.402;2023-04-24T02:41:02;9.00;;;2.60;;
65853;SDS011;52627;48.838;2.402;2023-04-24T02:43:32;6.00;;;2.30;;
65853;SDS011;52627;48.838;2.402;2023-04-24T02:46:00;6.00;;;2.20;;
65853;SDS011;52627;48.838;2.402;2023-04-24T02:48:27;6.60;;;2.30;;
65853;SDS011;52627;48.838;2.402;2023-04-24T02:50:54;7.20;;;2.90;;
65853;SDS011;52627;48.838;2.402;2023-04-24T02:53:21;6.20;;;2.40;;
65853;SDS011;52627;48.838;2.402;2023-04-24T02:55:47;7.20;;;2.20;;
65853;SDS011;52627;48.838;2.402;2023-04-24T02:58:14;7.80;;;2.60;;
65853;SDS011;52627;48.838;2.402;2023-04-24T03:00:42;9.40;;;3.50;;
65853;SDS011;52627;48.838;2.402;2023-04-24T03:03:09;7.40;;;2.30;;
65853;SDS011;52627;48.838;2.402;2023-04-24T03:05:36;7.30;;;2.70;;
65853;SDS011;52627;48.838;2.402;2023-04-24T03:08:03;8.90;;;2.90;;
65853;SDS011;52627;48.838;2.402;2023-04-24T03:10:30;11.30;;;2.70;;
65853;SDS011;52627;48.838;2.402;2023-04-24T03:12:58;6.60;;;2.70;;
65853;SDS011;52627;48.838;2.402;2023-04-24T03:15:26;6.10;;;2.40;;
65853;SDS011;52627;48.838;2.402;2023-04-24T03:17:52;7.40;;;2.70;;
65853;SDS011;52627;48.838;2.402;2023-04-24T03:20:23;6.70;;;2.50;;
65853;SDS011;52627;48.838;2.402;2023-04-24T03:22:50;8.60;;;2.50;;
65853;SDS011;52627;48.838;2.402;2023-04-24T03:25:16;7.10;;;2.40;;
65853;SDS011;52627;48.838;2.402;2023-04-24T03:27:43;9.80;;;2.90;;
65853;SDS011;52627;48.838;2.402;2023-04-24T03:30:10;7.00;;;3.10;;
65853;SDS011;52627;48.838;2.402;2023-04-24T03:32:37;7.00;;;2.60;;
65853;SDS011;52627;48.838;2.402;2023-04-24T03:35:08;9.30;;;3.00;;
65853;SDS011;52627;48.838;2.402;2023-04-24T03:37:35;6.50;;;2.90;;
65853;SDS011;52627;48.838;2.402;2023-04-24T03:40:03;6.60;;;2.40;;
65853;SDS011;52627;48.838;2.402;2023-04-24T03:42:30;6.20;;;2.40;;
65853;SDS011;52627;48.838;2.402;2023-04-24T03:44:57;7.10;;;2.40;;
65853;SDS011;52627;48.838;2.402;2023-04-24T03:47:24;6.10;;;2.70;;
65853;SDS011;52627;48.838;2.402;2023-04-24T03:49:51;7.70;;;2.50;;
65853;SDS011;52627;48.838;2.402;2023-04-24T03:52:18;10.10;;;2.80;;
65853;SDS011;52627;48.838;2.402;2023-04-24T03:54:45;7.00;;;2.70;;
65853;SDS011;52627;48.838;2.402;2023-04-24T03:57:12;7.50;;;2.60;;
65853;SDS011;52627;48.838;2.402;2023-04-24T03:59:38;7.70;;;2.40;;
65853;SDS011;52627;48.838;2.402;2023-04-24T04:02:05;7.20;;;2.70;;
65853;SDS011;52627;48.838;2.402;2023-04-24T04:04:32;8.40;;;2.50;;
65853;SDS011;52627;48.838;2.402;2023-04-24T04:07:00;7.40;;;3.30;;
65853;SDS011;52627;48.838;2.402;2023-04-24T04:09:29;7.10;;;2.90;;
65853;SDS011;52627;48.838;2.402;2023-04-24T04:11:56;6.70;;;2.80;;
65853;SDS011;52627;48.838;2.402;2023-04-24T04:14:22;7.50;;;2.90;;
65853;SDS011;52627;48.838;2.402;2023-04-24T04:16:50;9.70;;;2.80;;
65853;SDS011;52627;48.838;2.402;2023-04-24T04:19:21;6.50;;;3.10;;
65853;SDS011;52627;48.838;2.402;2023-04-24T04:21:47;8.60;;;3.00;;
65853;SDS011;52627;48.838;2.402;2023-04-24T04:24:19;8.00;;;3.20;;
65853;SDS011;52627;48.838;2.402;2023-04-24T04:26:50;8.70;;;3.20;;
65853;SDS011;52627;48.838;2.402;2023-04-24T04:29:18;10.00;;;3.60;;
65853;SDS011;52627;48.838;2.402;2023-04-24T04:34:15;9.30;;;3.30;;
65853;SDS011;52627;48.838;2.402;2023-04-24T04:36:42;8.40;;;3.30;;
65853;SDS011;52627;48.838;2.402;2023-04-24T04:39:10;8.30;;;3.40;;
65853;SDS011;52627;48.838;2.402;2023-04-24T04:41:36;10.60;;;3.90;;
65853;SDS011;52627;48.838;2.402;2023-04-24T04:44:07;8.80;;;3.50;;
65853;SDS011;52627;48.838;2.402;2023-04-24T04:46:35;9.00;;;3.30;;
65853;SDS011;52627;48.838;2.402;2023-04-24T04:49:04;7.90;;;4.10;;
65853;SDS011;52627;48.838;2.402;2023-04-24T04:51:31;8.50;;;4.10;;
65853;SDS011;52627;48.838;2.402;2023-04-24T04:53:58;7.50;;;3.10;;
65853;SDS011;52627;48.838;2.402;2023-04-24T04:56:25;8.50;;;3.50;;
65853;SDS011;52627;48.838;2.402;2023-04-24T04:58:51;9.30;;;3.40;;
65853;SDS011;52627;48.838;2.402;2023-04-24T05:01:18;7.60;;;3.10;;
65853;SDS011;52627;48.838;2.402;2023-04-24T05:03:45;9.80;;;3.50;;
65853;SDS011;52627;48.838;2.402;2023-04-24T05:06:12;6.80;;;3.60;;
65853;SDS011;52627;48.838;2.402;2023-04-24T05:08:39;8.90;;;3.90;;
65853;SDS011;52627;48.838;2.402;2023-04-24T05:11:06;10.10;;;3.80;;
65853;SDS011;52627;48.838;2.402;2023-04-24T05:13:33;9.00;;;3.50;;
65853;SDS011;52627;48.838;2.402;2023-04-24T05:16:07;8.50;;;4.00;;
65853;SDS011;52627;48.838;2.402;2023-04-24T05:18:34;7.10;;;3.90;;
65853;SDS011;52627;48.838;2.402;2023-04-24T05:21:01;9.30;;;4.20;;
65853;SDS011;52627;48.838;2.402;2023-04-24T05:23:28;9.80;;;4.80;;
65853;SDS011;52627;48.838;2.402;2023-04-24T05:25:55;6.80;;;3.80;;
65853;SDS011;52627;48.838;2.402;2023-04-24T05:28:21;10.60;;;4.10;;
65853;SDS011;52627;48.838;2.402;2023-04-24T05:30:48;8.40;;;4.00;;
65853;SDS011;52627;48.838;2.402;2023-04-24T05:33:15;9.40;;;4.40;;
65853;SDS011;52627;48.838;2.402;2023-04-24T05:35:42;7.30;;;4.30;;
65853;SDS011;52627;48.838;2.402;2023-04-24T05:38:13;8.60;;;4.90;;
65853;SDS011;52627;48.838;2.402;2023-04-24T05:40:40;11.90;;;4.60;;
65853;SDS011;52627;48.838;2.402;2023-04-24T05:43:07;12.70;;;5.10;;
65853;SDS011;52627;48.838;2.402;2023-04-24T05:45:33;7.00;;;3.80;;
65853;SDS011;52627;48.838;2.402;2023-04-24T05:48:03;9.20;;;4.80;;
65853;SDS011;52627;48.838;2.402;2023-04-24T05:50:30;8.30;;;4.60;;
65853;SDS011;52627;48.838;2.402;2023-04-24T05:52:57;11.80;;;4.60;;
65853;SDS011;52627;48.838;2.402;2023-04-24T05:55:30;10.70;;;4.90;;
65853;SDS011;52627;48.838;2.402;2023-04-24T05:57:57;12.10;;;4.80;;
65853;SDS011;52627;48.838;2.402;2023-04-24T06:00:24;13.90;;;5.10;;
65853;SDS011;52627;48.838;2.402;2023-04-24T06:02:52;9.90;;;4.90;;
65853;SDS011;52627;48.838;2.402;2023-04-24T06:05:20;13.90;;;5.90;;
65853;SDS011;52627;48.838;2.402;2023-04-24T06:07:47;13.20;;;5.10;;
65853;SDS011;52627;48.838;2.402;2023-04-24T06:10:14;10.00;;;4.80;;
65853;SDS011;52627;48.838;2.402;2023-04-24T06:12:42;12.20;;;4.80;;
65853;SDS011;52627;48.838;2.402;2023-04-24T06:15:09;9.60;;;5.50;;
65853;SDS011;52627;48.838;2.402;2023-04-24T06:17:36;8.30;;;5.30;;
65853;SDS011;52627;48.838;2.402;2023-04-24T06:20:04;10.60;;;5.00;;
65853;SDS011;52627;48.838;2.402;2023-04-24T06:22:32;10.50;;;5.10;;
65853;SDS011;52627;48.838;2.402;2023-04-24T06:24:59;9.20;;;4.80;;
65853;SDS011;52627;48.838;2.402;2023-04-24T06:27:27;9.60;;;5.00;;
65853;SDS011;52627;48.838;2.402;2023-04-24T06:29:53;11.00;;;5.00;;
65853;SDS011;52627;48.838;2.402;2023-04-24T06:32:22;9.10;;;4.60;;
65853;SDS011;52627;48.838;2.402;2023-04-24T06:34:51;9.50;;;5.30;;
65853;SDS011;52627;48.838;2.402;2023-04-24T06:37:22;12.80;;;4.70;;
65853;SDS011;52627;48.838;2.402;2023-04-24T06:39:49;11.70;;;5.00;;
65853;SDS011;52627;48.838;2.402;2023-04-24T06:42:15;10.70;;;5.40;;
65853;SDS011;52627;48.838;2.402;2023-04-24T06:44:42;9.00;;;5.60;;
65853;SDS011;52627;48.838;2.402;2023-04-24T06:47:10;12.20;;;5.80;;
65853;SDS011;52627;48.838;2.402;2023-04-24T06:49:39;9.70;;;5.80;;
65853;SDS011;52627;48.838;2.402;2023-04-24T06:52:06;10.90;;;5.80;;
65853;SDS011;52627;48.838;2.402;2023-04-24T06:54:34;11.60;;;5.80;;
65853;SDS011;52627;48.838;2.402;2023-04-24T06:57:00;11.90;;;6.10;;
65853;SDS011;52627;48.838;2.402;2023-04-24T06:59:29;14.00;;;6.50;;
65853;SDS011;52627;48.838;2.402;2023-04-24T07:01:56;10.00;;;6.10;;
65853;SDS011;52627;48.838;2.402;2023-04-24T07:04:23;11.00;;;6.00;;
65853;SDS011;52627;48.838;2.402;2023-04-24T07:06:52;12.60;;;6.20;;
65853;SDS011;52627;48.838;2.402;2023-04-24T07:09:20;13.60;;;6.80;;
65853;SDS011;52627;48.838;2.402;2023-04-24T07:11:48;10.80;;;5.80;;
65853;SDS011;52627;48.838;2.402;2023-04-24T07:14:15;12.30;;;6.10;;
65853;SDS011;52627;48.838;2.402;2023-04-24T07:16:42;11.40;;;6.20;;
65853;SDS011;52627;48.838;2.402;2023-04-24T07:19:09;11.30;;;6.10;;
65853;SDS011;52627;48.838;2.402;2023-04-24T07:21:36;11.10;;;5.90;;
65853;SDS011;52627;48.838;2.402;2023-04-24T07:24:03;11.00;;;6.80;;
65853;SDS011;52627;48.838;2.402;2023-04-24T07:26:31;9.40;;;6.60;;
65853;SDS011;52627;48.838;2.402;2023-04-24T07:28:57;10.70;;;6.90;;
65853;SDS011;52627;48.838;2.402;2023-04-24T07:31:24;14.80;;;6.90;;
65853;SDS011;52627;48.838;2.402;2023-04-24T07:33:52;11.80;;;6.60;;
65853;SDS011;52627;48.838;2.402;2023-04-24T07:36:19;14.90;;;7.40;;
65853;SDS011;52627;48.838;2.402;2023-04-24T07:38:46;15.50;;;7.10;;
65853;SDS011;52627;48.838;2.402;2023-04-24T07:41:13;13.00;;;7.40;;
65853;SDS011;52627;48.838;2.402;2023-04-24T07:43:41;12.20;;;7.40;;
65853;SDS011;52627;48.838;2.402;2023-04-24T07:46:08;10.70;;;6.80;;
65853;SDS011;52627;48.838;2.402;2023-04-24T07:48:36;11.20;;;7.10;;
65853;SDS011;52627;48.838;2.402;2023-04-24T07:51:03;11.80;;;6.70;;
65853;SDS011;52627;48.838;2.402;2023-04-24T07:53:30;13.20;;;7.10;;
65853;SDS011;52627;48.838;2.402;2023-04-24T07:55:56;10.80;;;6.70;;
65853;SDS011;52627;48.838;2.402;2023-04-24T07:58:23;13.90;;;7.10;;
65853;SDS011;52627;48.838;2.402;2023-04-24T08:00:51;13.70;;;7.30;;
65853;SDS011;52627;48.838;2.402;2023-04-24T08:03:17;12.20;;;6.80;;
65853;SDS011;52627;48.838;2.402;2023-04-24T08:05:46;13.30;;;7.00;;
65853;SDS011;52627;48.838;2.402;2023-04-24T08:08:13;11.50;;;6.80;;
65853;SDS011;52627;48.838;2.402;2023-04-24T08:10:41;14.20;;;6.70;;
65853;SDS011;52627;48.838;2.402;2023-04-24T08:13:08;14.70;;;7.80;;
65853;SDS011;52627;48.838;2.402;2023-04-24T08:15:35;15.50;;;8.00;;
65853;SDS011;52627;48.838;2.402;2023-04-24T08:18:01;13.40;;;7.50;;
65853;SDS011;52627;48.838;2.402;2023-04-24T08:20:29;13.60;;;8.40;;
65853;SDS011;52627;48.838;2.402;2023-04-24T08:22:56;15.00;;;7.80;;
65853;SDS011;52627;48.838;2.402;2023-04-24T08:25:23;14.40;;;8.00;;
65853;SDS011;52627;48.838;2.402;2023-04-24T08:27:51;12.40;;;7.40;;
65853;SDS011;52627;48.838;2.402;2023-04-24T08:30:18;14.60;;;7.40;;
65853;SDS011;52627;48.838;2.402;2023-04-24T08:32:45;12.90;;;7.50;;
65853;SDS011;52627;48.838;2.402;2023-04-24T08:35:12;11.80;;;7.70;;
65853;SDS011;52627;48.838;2.402;2023-04-24T08:37:39;13.90;;;7.90;;
65853;SDS011;52627;48.838;2.402;2023-04-24T08:40:13;14.90;;;7.50;;
65853;SDS011;52627;48.838;2.402;2023-04-24T08:42:42;13.20;;;7.60;;
65853;SDS011;52627;48.838;2.402;2023-04-24T08:45:12;14.70;;;7.20;;
65853;SDS011;52627;48.838;2.402;2023-04-24T08:47:40;11.70;;;7.20;;
65853;SDS011;52627;48.838;2.402;2023-04-24T08:50:09;14.20;;;7.90;;
65853;SDS011;52627;48.838;2.402;2023-04-24T08:52:36;14.20;;;8.40;;
65853;SDS011;52627;48.838;2.402;2023-04-24T08:55:05;13.70;;;8.00;;
65853;SDS011;52627;48.838;2.402;2023-04-24T08:57:32;12.60;;;7.20;;
65853;SDS011;52627;48.838;2.402;2023-04-24T09:00:00;12.30;;;7.90;;
65853;SDS011;52627;48.838;2.402;2023-04-24T09:02:27;12.40;;;6.50;;
65853;SDS011;52627;48.838;2.402;2023-04-24T09:04:55;12.80;;;7.50;;
65853;SDS011;52627;48.838;2.402;2023-04-24T09:07:24;12.10;;;7.40;;
65853;SDS011;52627;48.838;2.402;2023-04-24T09:09:53;13.00;;;7.50;;
65853;SDS011;52627;48.838;2.402;2023-04-24T09:12:20;10.70;;;7.60;;
65853;SDS011;52627;48.838;2.402;2023-04-24T09:14:48;12.00;;;7.80;;
65853;SDS011;52627;48.838;2.402;2023-04-24T09:17:15;12.90;;;8.30;;
65853;SDS011;52627;48.838;2.402;2023-04-24T09:19:41;11.50;;;8.00;;
65853;SDS011;52627;48.838;2.402;2023-04-24T09:22:09;12.50;;;7.90;;
65853;SDS011;52627;48.838;2.402;2023-04-24T09:24:36;14.60;;;8.00;;
65853;SDS011;52627;48.838;2.402;2023-04-24T09:27:03;11.50;;;8.00;;
65853;SDS011;52627;48.838;2.402;2023-04-24T09:29:30;12.40;;;8.10;;
65853;SDS011;52627;48.838;2.402;2023-04-24T09:31:59;11.40;;;7.70;;
65853;SDS011;52627;48.838;2.402;2023-04-24T09:34:27;10.80;;;7.10;;
65853;SDS011;52627;48.838;2.402;2023-04-24T09:36:54;10.80;;;7.10;;
65853;SDS011;52627;48.838;2.402;2023-04-24T09:39:22;12.20;;;6.80;;
65853;SDS011;52627;48.838;2.402;2023-04-24T09:41:56;13.10;;;7.10;;
65853;SDS011;52627;48.838;2.402;2023-04-24T09:44:28;11.40;;;6.70;;
65853;SDS011;52627;48.838;2.402;2023-04-24T09:46:57;10.00;;;6.30;;
65853;SDS011;52627;48.838;2.402;2023-04-24T09:49:26;14.10;;;7.80;;
65853;SDS011;52627;48.838;2.402;2023-04-24T09:52:09;13.50;;;6.80;;
65853;SDS011;52627;48.838;2.402;2023-04-24T09:54:37;10.40;;;6.80;;
65853;SDS011;52627;48.838;2.402;2023-04-24T09:57:07;10.70;;;7.40;;
65853;SDS011;52627;48.838;2.402;2023-04-24T09:59:42;11.20;;;6.70;;
65853;SDS011;52627;48.838;2.402;2023-04-24T10:02:18;8.50;;;6.20;;
65853;SDS011;52627;48.838;2.402;2023-04-24T10:04:56;9.50;;;6.70;;
65853;SDS011;52627;48.838;2.402;2023-04-24T10:07:26;12.90;;;6.90;;
65853;SDS011;52627;48.838;2.402;2023-04-24T10:09:54;13.00;;;7.40;;
65853;SDS011;52627;48.838;2.402;2023-04-24T10:12:22;10.40;;;6.30;;
65853;SDS011;52627;48.838;2.402;2023-04-24T10:14:51;11.50;;;6.80;;
65853;SDS011;52627;48.838;2.402;2023-04-24T10:17:19;13.60;;;7.30;;
65853;SDS011;52627;48.838;2.402;2023-04-24T10:19:47;11.00;;;7.40;;
65853;SDS011;52627;48.838;2.402;2023-04-24T10:22:17;9.70;;;6.60;;
65853;SDS011;52627;48.838;2.402;2023-04-24T10:24:48;9.20;;;6.10;;
65853;SDS011;52627;48.838;2.402;2023-04-24T10:27:16;11.60;;;6.30;;
65853;SDS011;52627;48.838;2.402;2023-04-24T10:29:45;10.90;;;6.10;;
65853;SDS011;52627;48.838;2.402;2023-04-24T10:32:12;11.50;;;6.70;;
65853;SDS011;52627;48.838;2.402;2023-04-24T10:34:38;9.90;;;6.90;;
65853;SDS011;52627;48.838;2.402;2023-04-24T10:37:05;10.80;;;6.60;;
65853;SDS011;52627;48.838;2.402;2023-04-24T10:39:33;8.80;;;6.60;;
65853;SDS011;52627;48.838;2.402;2023-04-24T10:42:00;12.30;;;7.30;;
65853;SDS011;52627;48.838;2.402;2023-04-24T10:44:36;14.70;;;7.50;;
65853;SDS011;52627;48.838;2.402;2023-04-24T10:47:04;13.10;;;7.00;;
65853;SDS011;52627;48.838;2.402;2023-04-24T10:49:31;11.10;;;7.00;;
65853;SDS011;52627;48.838;2.402;2023-04-24T10:52:02;10.30;;;6.70;;
65853;SDS011;52627;48.838;2.402;2023-04-24T10:54:41;9.00;;;5.90;;
65853;SDS011;52627;48.838;2.402;2023-04-24T10:59:51;9.30;;;5.90;;
65853;SDS011;52627;48.838;2.402;2023-04-24T11:02:37;8.90;;;5.80;;
65853;SDS011;52627;48.838;2.402;2023-04-24T11:05:06;9.30;;;5.70;;
65853;SDS011;52627;48.838;2.402;2023-04-24T11:10:46;8.80;;;4.90;;
65853;SDS011;52627;48.838;2.402;2023-04-24T11:13:17;9.70;;;5.10;;
65853;SDS011;52627;48.838;2.402;2023-04-24T11:32:27;8.00;;;4.70;;
65853;SDS011;52627;48.838;2.402;2023-04-24T11:37:46;7.90;;;4.80;;
65853;SDS011;52627;48.838;2.402;2023-04-24T11:40:36;8.10;;;4.70;;
65853;SDS011;52627;48.838;2.402;2023-04-24T11:43:06;9.20;;;5.00;;
65853;SDS011;52627;48.838;2.402;2023-04-24T11:45:34;7.50;;;5.00;;
65853;SDS011;52627;48.838;2.402;2023-04-24T11:48:02;7.80;;;5.20;;
65853;SDS011;52627;48.838;2.402;2023-04-24T11:50:30;6.90;;;4.30;;
65853;SDS011;52627;48.838;2.402;2023-04-24T11:52:57;6.60;;;4.60;;
65853;SDS011;52627;48.838;2.402;2023-04-24T11:55:25;7.70;;;4.80;;
65853;SDS011;52627;48.838;2.402;2023-04-24T11:57:57;7.10;;;4.30;;
65853;SDS011;52627;48.838;2.402;2023-04-24T12:00:31;5.90;;;4.30;;
65853;SDS011;52627;48.838;2.402;2023-04-24T12:03:08;7.20;;;4.40;;
65853;SDS011;52627;48.838;2.402;2023-04-24T12:05:37;5.70;;;3.80;;
65853;SDS011;52627;48.838;2.402;2023-04-24T12:08:06;8.20;;;4.20;;
65853;SDS011;52627;48.838;2.402;2023-04-24T12:10:33;7.10;;;4.10;;
65853;SDS011;52627;48.838;2.402;2023-04-24T12:13:01;6.30;;;3.70;;
65853;SDS011;52627;48.838;2.402;2023-04-24T12:15:28;7.50;;;3.50;;
65853;SDS011;52627;48.838;2.402;2023-04-24T12:17:56;6.60;;;3.50;;
65853;SDS011;52627;48.838;2.402;2023-04-24T12:20:29;5.20;;;3.60;;
65853;SDS011;52627;48.838;2.402;2023-04-24T12:22:59;5.80;;;3.50;;
65853;SDS011;52627;48.838;2.402;2023-04-24T12:25:30;7.40;;;3.60;;
65853;SDS011;52627;48.838;2.402;2023-04-24T12:30:34;8.70;;;3.40;;
65853;SDS011;52627;48.838;2.402;2023-04-24T12:33:04;6.00;;;3.50;;
65853;SDS011;52627;48.838;2.402;2023-04-24T12:35:32;6.30;;;3.50;;
65853;SDS011;52627;48.838;2.402;2023-04-24T12:40:34;5.50;;;2.80;;
65853;SDS011;52627;48.838;2.402;2023-04-24T12:43:01;4.80;;;2.80;;
65853;SDS011;52627;48.838;2.402;2023-04-24T12:45:28;4.50;;;2.50;;
65853;SDS011;52627;48.838;2.402;2023-04-24T12:47:55;3.90;;;2.70;;
65853;SDS011;52627;48.838;2.402;2023-04-24T12:50:22;5.40;;;3.00;;
65853;SDS011;52627;48.838;2.402;2023-04-24T12:52:49;7.00;;;3.10;;
65853;SDS011;52627;48.838;2.402;2023-04-24T12:55:16;6.50;;;2.90;;
65853;SDS011;52627;48.838;2.402;2023-04-24T12:57:43;7.00;;;2.70;;
65853;SDS011;52627;48.838;2.402;2023-04-24T13:00:10;10.10;;;3.30;;
65853;SDS011;52627;48.838;2.402;2023-04-24T13:02:38;6.00;;;2.90;;
65853;SDS011;52627;48.838;2.402;2023-04-24T13:05:05;6.10;;;2.80;;
65853;SDS011;52627;48.838;2.402;2023-04-24T13:07:32;7.90;;;2.80;;
65853;SDS011;52627;48.838;2.402;2023-04-24T13:09:59;6.20;;;2.90;;
65853;SDS011;52627;48.838;2.402;2023-04-24T13:12:26;6.40;;;2.60;;
65853;SDS011;52627;48.838;2.402;2023-04-24T13:14:53;4.50;;;2.50;;
65853;SDS011;52627;48.838;2.402;2023-04-24T13:17:20;3.90;;;2.30;;
65853;SDS011;52627;48.838;2.402;2023-04-24T13:19:49;5.30;;;2.40;;
65853;SDS011;52627;48.838;2.402;2023-04-24T13:22:17;4.50;;;2.20;;
65853;SDS011;52627;48.838;2.402;2023-04-24T13:24:47;4.40;;;2.40;;
65853;SDS011;52627;48.838;2.402;2023-04-24T13:27:18;5.20;;;2.40;;
65853;SDS011;52627;48.838;2.402;2023-04-24T13:29:45;4.60;;;2.20;;
65853;SDS011;52627;48.838;2.402;2023-04-24T13:32:12;3.70;;;2.20;;
65853;SDS011;52627;48.838;2.402;2023-04-24T13:34:40;5.10;;;2.10;;
65853;SDS011;52627;48.838;2.402;2023-04-24T13:37:06;4.50;;;2.00;;
65853;SDS011;52627;48.838;2.402;2023-04-24T13:39:34;4.50;;;2.30;;
65853;SDS011;52627;48.838;2.402;2023-04-24T13:42:02;4.40;;;2.30;;
65853;SDS011;52627;48.838;2.402;2023-04-24T13:44:31;5.30;;;2.10;;
65853;SDS011;52627;48.838;2.402;2023-04-24T13:46:58;4.20;;;2.10;;
65853;SDS011;52627;48.838;2.402;2023-04-24T13:49:26;4.00;;;2.10;;
65853;SDS011;52627;48.838;2.402;2023-04-24T13:51:54;5.80;;;2.20;;
65853;SDS011;52627;48.838;2.402;2023-04-24T13:54:22;5.50;;;2.40;;
65853;SDS011;52627;48.838;2.402;2023-04-24T13:56:52;4.40;;;1.90;;
65853;SDS011;52627;48.838;2.402;2023-04-24T13:59:19;5.30;;;2.10;;
65853;SDS011;52627;48.838;2.402;2023-04-24T14:01:47;5.80;;;2.20;;
65853;SDS011;52627;48.838;2.402;2023-04-24T14:04:15;7.10;;;2.60;;
65853;SDS011;52627;48.838;2.402;2023-04-24T14:06:43;3.60;;;2.10;;
65853;SDS011;52627;48.838;2.402;2023-04-24T14:09:11;4.20;;;2.10;;
65853;SDS011;52627;48.838;2.402;2023-04-24T14:11:37;5.10;;;2.10;;
65853;SDS011;52627;48.838;2.402;2023-04-24T14:14:05;4.00;;;2.10;;
65853;SDS011;52627;48.838;2.402;2023-04-24T14:16:32;5.20;;;2.00;;
65853;SDS011;52627;48.838;2.402;2023-04-24T14:18:59;4.00;;;1.90;;
65853;SDS011;52627;48.838;2.402;2023-04-24T14:21:25;4.20;;;1.60;;
65853;SDS011;52627;48.838;2.402;2023-04-24T14:23:52;5.60;;;1.90;;
65853;SDS011;52627;48.838;2.402;2023-04-24T14:26:19;3.20;;;1.60;;
65853;SDS011;52627;48.838;2.402;2023-04-24T14:28:46;4.40;;;1.60;;
65853;SDS011;52627;48.838;2.402;2023-04-24T14:31:13;4.30;;;1.90;;
65853;SDS011;52627;48.838;2.402;2023-04-24T14:33:39;3.10;;;1.30;;
65853;SDS011;52627;48.838;2.402;2023-04-24T14:36:06;4.40;;;1.70;;
65853;SDS011;52627;48.838;2.402;2023-04-24T14:38:33;3.30;;;1.50;;
65853;SDS011;52627;48.838;2.402;2023-04-24T14:41:00;4.20;;;1.70;;
65853;SDS011;52627;48.838;2.402;2023-04-24T14:43:31;3.10;;;1.30;;
65853;SDS011;52627;48.838;2.402;2023-04-24T14:45:59;3.00;;;1.50;;
65853;SDS011;52627;48.838;2.402;2023-04-24T14:48:26;4.20;;;1.80;;
65853;SDS011;52627;48.838;2.402;2023-04-24T14:50:53;4.00;;;1.70;;
65853;SDS011;52627;48.838;2.402;2023-04-24T14:53:19;3.60;;;1.60;;
65853;SDS011;52627;48.838;2.402;2023-04-24T14:55:47;2.70;;;1.50;;
65853;SDS011;52627;48.838;2.402;2023-04-24T14:58:13;4.90;;;1.50;;
65853;SDS011;52627;48.838;2.402;2023-04-24T15:00:40;4.10;;;1.70;;
65853;SDS011;52627;48.838;2.402;2023-04-24T15:03:07;4.20;;;1.60;;
65853;SDS011;52627;48.838;2.402;2023-04-24T15:05:35;2.80;;;1.50;;
65853;SDS011;52627;48.838;2.402;2023-04-24T15:08:03;3.80;;;1.70;;
65853;SDS011;52627;48.838;2.402;2023-04-24T15:10:30;4.10;;;1.80;;
65853;SDS011;52627;48.838;2.402;2023-04-24T15:12:57;4.00;;;1.60;;
65853;SDS011;52627;48.838;2.402;2023-04-24T15:15:23;3.70;;;1.70;;
65853;SDS011;52627;48.838;2.402;2023-04-24T15:17:50;4.40;;;1.90;;
65853;SDS011;52627;48.838;2.402;2023-04-24T15:20:17;3.90;;;1.90;;